sensor_id;sensor_type;location;lat;lon;timestamp;P1;durP1;ratioP1;P2;durP2;ratioP2
14381;SDS011;7275;50.328;8.720;2023-02-21T00:01:27;14.40;;;11.63;;
14381;SDS011;7275;50.328;8.720;2023-02-21T00:04:12;14.77;;;11.33;;
14381;SDS011;7275;50.328;8.720;2023-02-21T00:06:57;13.40;;;10.57;;
14381;SDS011;7275;50.328;8.720;2023-02-21T00:09:44;13.40;;;10.83;;
14381;SDS011;7275;50.328;8.720;2023-02-21T00:12:29;12.70;;;10.10;;
14381;SDS011;7275;50.328;8.720;2023-02-21T00:15:14;15.10;;;10.47;;
14381;SDS011;7275;50.328;8.720;2023-02-21T00:17:59;13.97;;;10.80;;
14381;SDS011;7275;50.328;8.720;2023-02-21T00:20:45;13.87;;;11.33;;
14381;SDS011;7275;50.328;8.720;2023-02-21T00:23:32;13.73;;;10.77;;
14381;SDS011;7275;50.328;8.720;2023-02-21T00:26:19;13.07;;;9.90;;
14381;SDS011;7275;50.328;8.720;2023-02-21T00:29:05;12.43;;;9.53;;
14381;SDS011;7275;50.328;8.720;2023-02-21T00:31:51;12.07;;;9.57;;
14381;SDS011;7275;50.328;8.720;2023-02-21T00:34:37;11.83;;;9.63;;
14381;SDS011;7275;50.328;8.720;2023-02-21T00:37:22;12.57;;;10.17;;
14381;SDS011;7275;50.328;8.720;2023-02-21T00:40:09;14.33;;;10.60;;
14381;SDS011;7275;50.328;8.720;2023-02-21T00:42:56;12.30;;;9.87;;
14381;SDS011;7275;50.328;8.720;2023-02-21T00:45:42;13.30;;;10.60;;
14381;SDS011;7275;50.328;8.720;2023-02-21T00:48:27;13.63;;;10.93;;
14381;SDS011;7275;50.328;8.720;2023-02-21T00:51:13;12.50;;;9.73;;
14381;SDS011;7275;50.328;8.720;2023-02-21T00:53:57;12.90;;;10.13;;
14381;SDS011;7275;50.328;8.720;2023-02-21T00:56:43;13.00;;;10.50;;
14381;SDS011;7275;50.328;8.720;2023-02-21T00:59:29;12.63;;;10.93;;
14381;SDS011;7275;50.328;8.720;2023-02-21T01:02:15;14.03;;;10.83;;
14381;SDS011;7275;50.328;8.720;2023-02-21T01:05:00;12.80;;;10.70;;
14381;SDS011;7275;50.328;8.720;2023-02-21T01:07:46;11.37;;;9.43;;
14381;SDS011;7275;50.328;8.720;2023-02-21T01:10:31;12.20;;;9.40;;
14381;SDS011;7275;50.328;8.720;2023-02-21T01:13:16;13.53;;;10.30;;
14381;SDS011;7275;50.328;8.720;2023-02-21T01:16:03;11.37;;;9.27;;
14381;SDS011;7275;50.328;8.720;2023-02-21T01:18:50;11.17;;;9.07;;
14381;SDS011;7275;50.328;8.720;2023-02-21T01:21:35;12.03;;;9.37;;
14381;SDS011;7275;50.328;8.720;2023-02-21T01:24:21;12.23;;;9.83;;
14381;SDS011;7275;50.328;8.720;2023-02-21T01:27:06;12.33;;;10.23;;
14381;SDS011;7275;50.328;8.720;2023-02-21T01:29:52;14.17;;;10.47;;
14381;SDS011;7275;50.328;8.720;2023-02-21T01:32:38;11.80;;;9.83;;
14381;SDS011;7275;50.328;8.720;2023-02-21T01:35:24;13.00;;;10.33;;
14381;SDS011;7275;50.328;8.720;2023-02-21T01:38:09;12.07;;;9.57;;
14381;SDS011;7275;50.328;8.720;2023-02-21T01:40:54;11.10;;;8.93;;
14381;SDS011;7275;50.328;8.720;2023-02-21T01:43:54;12.83;;;9.83;;
14381;SDS011;7275;50.328;8.720;2023-02-21T01:46:41;10.33;;;8.97;;
14381;SDS011;7275;50.328;8.720;2023-02-21T01:49:27;11.10;;;8.97;;
14381;SDS011;7275;50.328;8.720;2023-02-21T01:52:14;9.73;;;8.53;;
14381;SDS011;7275;50.328;8.720;2023-02-21T01:55:00;11.63;;;9.47;;
14381;SDS011;7275;50.328;8.720;2023-02-21T01:57:46;11.93;;;8.97;;
14381;SDS011;7275;50.328;8.720;2023-02-21T02:00:31;11.70;;;10.20;;
14381;SDS011;7275;50.328;8.720;2023-02-21T02:03:18;10.30;;;8.90;;
14381;SDS011;7275;50.328;8.720;2023-02-21T02:06:06;12.43;;;9.97;;
14381;SDS011;7275;50.328;8.720;2023-02-21T02:08:53;10.67;;;8.43;;
14381;SDS011;7275;50.328;8.720;2023-02-21T02:14:59;10.87;;;8.50;;
14381;SDS011;7275;50.328;8.720;2023-02-21T02:17:53;11.17;;;9.00;;
14381;SDS011;7275;50.328;8.720;2023-02-21T02:23:54;11.30;;;9.20;;
14381;SDS011;7275;50.328;8.720;2023-02-21T02:26:53;12.30;;;9.60;;
14381;SDS011;7275;50.328;8.720;2023-02-21T02:29:43;10.83;;;8.93;;
14381;SDS011;7275;50.328;8.720;2023-02-21T02:32:42;11.13;;;8.93;;
14381;SDS011;7275;50.328;8.720;2023-02-21T02:35:25;12.77;;;8.97;;
14381;SDS011;7275;50.328;8.720;2023-02-21T02:37:58;12.87;;;9.80;;
14381;SDS011;7275;50.328;8.720;2023-02-21T02:40:30;12.90;;;9.80;;
14381;SDS011;7275;50.328;8.720;2023-02-21T02:43:02;12.70;;;9.50;;
14381;SDS011;7275;50.328;8.720;2023-02-21T02:45:42;12.67;;;10.33;;
14381;SDS011;7275;50.328;8.720;2023-02-21T02:48:13;12.63;;;9.97;;
14381;SDS011;7275;50.328;8.720;2023-02-21T02:50:46;11.67;;;10.00;;
14381;SDS011;7275;50.328;8.720;2023-02-21T02:53:16;13.77;;;10.70;;
14381;SDS011;7275;50.328;8.720;2023-02-21T02:55:47;13.07;;;10.57;;
14381;SDS011;7275;50.328;8.720;2023-02-21T02:58:18;12.10;;;9.80;;
14381;SDS011;7275;50.328;8.720;2023-02-21T03:03:44;11.53;;;9.63;;
14381;SDS011;7275;50.328;8.720;2023-02-21T03:06:38;10.03;;;8.77;;
14381;SDS011;7275;50.328;8.720;2023-02-21T03:09:15;12.93;;;9.73;;
14381;SDS011;7275;50.328;8.720;2023-02-21T03:11:50;11.97;;;9.60;;
14381;SDS011;7275;50.328;8.720;2023-02-21T03:14:22;13.77;;;10.10;;
14381;SDS011;7275;50.328;8.720;2023-02-21T03:17:00;13.23;;;10.43;;
14381;SDS011;7275;50.328;8.720;2023-02-21T03:19:30;11.67;;;8.87;;
14381;SDS011;7275;50.328;8.720;2023-02-21T03:22:04;12.13;;;9.33;;
14381;SDS011;7275;50.328;8.720;2023-02-21T03:24:34;12.90;;;10.40;;
14381;SDS011;7275;50.328;8.720;2023-02-21T03:27:05;11.67;;;9.27;;
14381;SDS011;7275;50.328;8.720;2023-02-21T03:29:34;11.80;;;9.27;;
14381;SDS011;7275;50.328;8.720;2023-02-21T03:32:04;12.43;;;9.90;;
14381;SDS011;7275;50.328;8.720;2023-02-21T03:34:37;13.00;;;9.87;;
14381;SDS011;7275;50.328;8.720;2023-02-21T03:37:08;12.53;;;9.27;;
14381;SDS011;7275;50.328;8.720;2023-02-21T03:39:37;12.10;;;9.60;;
14381;SDS011;7275;50.328;8.720;2023-02-21T03:42:04;11.83;;;9.17;;
14381;SDS011;7275;50.328;8.720;2023-02-21T03:44:32;13.17;;;9.73;;
14381;SDS011;7275;50.328;8.720;2023-02-21T03:46:59;12.50;;;10.43;;
14381;SDS011;7275;50.328;8.720;2023-02-21T03:49:27;11.57;;;9.63;;
14381;SDS011;7275;50.328;8.720;2023-02-21T03:51:55;11.47;;;9.27;;
14381;SDS011;7275;50.328;8.720;2023-02-21T03:54:23;10.57;;;8.73;;
14381;SDS011;7275;50.328;8.720;2023-02-21T03:56:52;11.97;;;9.50;;
14381;SDS011;7275;50.328;8.720;2023-02-21T03:59:19;10.97;;;8.80;;
14381;SDS011;7275;50.328;8.720;2023-02-21T04:01:47;11.03;;;8.70;;
14381;SDS011;7275;50.328;8.720;2023-02-21T04:04:15;12.43;;;9.53;;
14381;SDS011;7275;50.328;8.720;2023-02-21T04:06:43;12.80;;;9.10;;
14381;SDS011;7275;50.328;8.720;2023-02-21T04:09:10;11.70;;;9.10;;
14381;SDS011;7275;50.328;8.720;2023-02-21T04:11:42;12.77;;;9.10;;
14381;SDS011;7275;50.328;8.720;2023-02-21T04:14:11;11.23;;;8.67;;
14381;SDS011;7275;50.328;8.720;2023-02-21T04:16:38;9.87;;;8.23;;
14381;SDS011;7275;50.328;8.720;2023-02-21T04:19:07;12.77;;;8.60;;
14381;SDS011;7275;50.328;8.720;2023-02-21T04:21:35;11.00;;;9.00;;
14381;SDS011;7275;50.328;8.720;2023-02-21T04:24:03;9.53;;;7.97;;
14381;SDS011;7275;50.328;8.720;2023-02-21T04:26:31;10.80;;;8.70;;
14381;SDS011;7275;50.328;8.720;2023-02-21T04:29:01;9.80;;;7.43;;
14381;SDS011;7275;50.328;8.720;2023-02-21T04:31:30;9.00;;;7.17;;
14381;SDS011;7275;50.328;8.720;2023-02-21T04:33:58;10.70;;;7.97;;
14381;SDS011;7275;50.328;8.720;2023-02-21T04:36:37;10.67;;;7.60;;
14381;SDS011;7275;50.328;8.720;2023-02-21T04:39:06;9.83;;;7.27;;
14381;SDS011;7275;50.328;8.720;2023-02-21T04:41:34;10.37;;;7.67;;
14381;SDS011;7275;50.328;8.720;2023-02-21T04:44:03;10.20;;;7.97;;
14381;SDS011;7275;50.328;8.720;2023-02-21T04:46:31;10.03;;;7.93;;
14381;SDS011;7275;50.328;8.720;2023-02-21T04:48:59;10.80;;;7.30;;
14381;SDS011;7275;50.328;8.720;2023-02-21T04:51:27;9.30;;;7.53;;
14381;SDS011;7275;50.328;8.720;2023-02-21T04:53:54;8.27;;;6.93;;
14381;SDS011;7275;50.328;8.720;2023-02-21T04:56:23;9.37;;;7.00;;
14381;SDS011;7275;50.328;8.720;2023-02-21T04:58:52;11.07;;;8.10;;
14381;SDS011;7275;50.328;8.720;2023-02-21T05:01:21;11.47;;;8.37;;
14381;SDS011;7275;50.328;8.720;2023-02-21T05:03:53;9.77;;;7.80;;
14381;SDS011;7275;50.328;8.720;2023-02-21T05:06:21;9.97;;;7.97;;
14381;SDS011;7275;50.328;8.720;2023-02-21T05:08:50;9.33;;;7.57;;
14381;SDS011;7275;50.328;8.720;2023-02-21T05:11:18;10.47;;;7.60;;
14381;SDS011;7275;50.328;8.720;2023-02-21T05:13:48;10.87;;;8.60;;
14381;SDS011;7275;50.328;8.720;2023-02-21T05:16:16;11.93;;;7.80;;
14381;SDS011;7275;50.328;8.720;2023-02-21T05:18:46;9.93;;;7.60;;
14381;SDS011;7275;50.328;8.720;2023-02-21T05:21:15;9.33;;;7.17;;
14381;SDS011;7275;50.328;8.720;2023-02-21T05:23:45;9.33;;;7.07;;
14381;SDS011;7275;50.328;8.720;2023-02-21T05:26:21;10.00;;;7.60;;
14381;SDS011;7275;50.328;8.720;2023-02-21T05:28:51;8.70;;;6.83;;
14381;SDS011;7275;50.328;8.720;2023-02-21T05:31:19;12.37;;;7.80;;
14381;SDS011;7275;50.328;8.720;2023-02-21T05:33:49;10.60;;;7.77;;
14381;SDS011;7275;50.328;8.720;2023-02-21T05:36:16;10.40;;;7.33;;
14381;SDS011;7275;50.328;8.720;2023-02-21T05:38:44;10.13;;;7.40;;
14381;SDS011;7275;50.328;8.720;2023-02-21T05:41:13;11.63;;;8.10;;
14381;SDS011;7275;50.328;8.720;2023-02-21T05:43:42;11.10;;;8.40;;
14381;SDS011;7275;50.328;8.720;2023-02-21T05:46:17;11.93;;;8.50;;
14381;SDS011;7275;50.328;8.720;2023-02-21T05:48:48;9.50;;;7.67;;
14381;SDS011;7275;50.328;8.720;2023-02-21T05:51:16;10.03;;;7.73;;
14381;SDS011;7275;50.328;8.720;2023-02-21T05:53:44;12.17;;;7.83;;
14381;SDS011;7275;50.328;8.720;2023-02-21T05:56:11;11.77;;;8.33;;
14381;SDS011;7275;50.328;8.720;2023-02-21T05:58:39;10.43;;;8.27;;
14381;SDS011;7275;50.328;8.720;2023-02-21T06:01:07;10.20;;;7.10;;
14381;SDS011;7275;50.328;8.720;2023-02-21T06:03:35;9.97;;;7.33;;
14381;SDS011;7275;50.328;8.720;2023-02-21T06:06:04;9.70;;;7.80;;
14381;SDS011;7275;50.328;8.720;2023-02-21T06:08:32;10.27;;;7.80;;
14381;SDS011;7275;50.328;8.720;2023-02-21T06:11:07;10.70;;;7.90;;
14381;SDS011;7275;50.328;8.720;2023-02-21T06:13:35;9.33;;;7.63;;
14381;SDS011;7275;50.328;8.720;2023-02-21T06:16:03;9.73;;;7.03;;
14381;SDS011;7275;50.328;8.720;2023-02-21T06:18:31;11.40;;;8.47;;
14381;SDS011;7275;50.328;8.720;2023-02-21T06:20:59;11.43;;;8.37;;
14381;SDS011;7275;50.328;8.720;2023-02-21T06:23:28;11.57;;;8.57;;
14381;SDS011;7275;50.328;8.720;2023-02-21T06:25:55;10.37;;;8.43;;
14381;SDS011;7275;50.328;8.720;2023-02-21T06:28:26;10.63;;;8.27;;
14381;SDS011;7275;50.328;8.720;2023-02-21T06:30:54;11.83;;;8.13;;
14381;SDS011;7275;50.328;8.720;2023-02-21T06:33:22;13.17;;;8.60;;
14381;SDS011;7275;50.328;8.720;2023-02-21T06:35:50;10.63;;;8.30;;
14381;SDS011;7275;50.328;8.720;2023-02-21T06:38:18;12.00;;;9.20;;
14381;SDS011;7275;50.328;8.720;2023-02-21T06:40:46;10.90;;;8.17;;
14381;SDS011;7275;50.328;8.720;2023-02-21T06:43:14;11.93;;;8.27;;
14381;SDS011;7275;50.328;8.720;2023-02-21T06:45:42;13.33;;;9.00;;
14381;SDS011;7275;50.328;8.720;2023-02-21T06:48:13;11.37;;;9.10;;
14381;SDS011;7275;50.328;8.720;2023-02-21T06:50:41;11.27;;;8.70;;
14381;SDS011;7275;50.328;8.720;2023-02-21T06:53:09;10.90;;;7.90;;
14381;SDS011;7275;50.328;8.720;2023-02-21T06:55:37;11.40;;;7.90;;
14381;SDS011;7275;50.328;8.720;2023-02-21T06:58:06;11.00;;;8.60;;
14381;SDS011;7275;50.328;8.720;2023-02-21T07:00:34;11.07;;;8.43;;
14381;SDS011;7275;50.328;8.720;2023-02-21T07:03:01;11.30;;;8.43;;
14381;SDS011;7275;50.328;8.720;2023-02-21T07:05:29;9.47;;;7.83;;
14381;SDS011;7275;50.328;8.720;2023-02-21T07:07:59;9.97;;;8.20;;
14381;SDS011;7275;50.328;8.720;2023-02-21T07:10:27;10.50;;;7.63;;
14381;SDS011;7275;50.328;8.720;2023-02-21T07:12:55;10.00;;;7.87;;
14381;SDS011;7275;50.328;8.720;2023-02-21T07:15:24;11.70;;;7.47;;
14381;SDS011;7275;50.328;8.720;2023-02-21T07:17:52;10.40;;;7.57;;
14381;SDS011;7275;50.328;8.720;2023-02-21T07:20:19;8.30;;;6.73;;
14381;SDS011;7275;50.328;8.720;2023-02-21T07:22:47;9.77;;;6.87;;
14381;SDS011;7275;50.328;8.720;2023-02-21T07:25:15;10.30;;;7.43;;
14381;SDS011;7275;50.328;8.720;2023-02-21T07:27:45;9.63;;;7.03;;
14381;SDS011;7275;50.328;8.720;2023-02-21T07:30:14;8.33;;;6.93;;
14381;SDS011;7275;50.328;8.720;2023-02-21T07:32:44;9.27;;;6.70;;
14381;SDS011;7275;50.328;8.720;2023-02-21T07:35:12;9.17;;;7.00;;
14381;SDS011;7275;50.328;8.720;2023-02-21T07:37:40;9.20;;;7.13;;
14381;SDS011;7275;50.328;8.720;2023-02-21T07:40:08;9.20;;;6.20;;
14381;SDS011;7275;50.328;8.720;2023-02-21T07:42:36;8.97;;;6.40;;
14381;SDS011;7275;50.328;8.720;2023-02-21T07:45:08;8.37;;;6.63;;
14381;SDS011;7275;50.328;8.720;2023-02-21T07:47:36;8.83;;;6.60;;
14381;SDS011;7275;50.328;8.720;2023-02-21T07:50:05;8.93;;;6.57;;
14381;SDS011;7275;50.328;8.720;2023-02-21T07:52:33;8.30;;;6.30;;
14381;SDS011;7275;50.328;8.720;2023-02-21T07:55:01;8.93;;;6.57;;
14381;SDS011;7275;50.328;8.720;2023-02-21T07:57:28;9.40;;;6.83;;
14381;SDS011;7275;50.328;8.720;2023-02-21T07:59:56;9.30;;;6.73;;
14381;SDS011;7275;50.328;8.720;2023-02-21T08:02:24;7.23;;;6.37;;
14381;SDS011;7275;50.328;8.720;2023-02-21T08:04:51;7.17;;;6.27;;
14381;SDS011;7275;50.328;8.720;2023-02-21T08:07:20;8.00;;;6.33;;
14381;SDS011;7275;50.328;8.720;2023-02-21T08:09:48;8.40;;;6.13;;
14381;SDS011;7275;50.328;8.720;2023-02-21T08:12:16;9.50;;;6.90;;
14381;SDS011;7275;50.328;8.720;2023-02-21T08:14:44;8.77;;;6.57;;
14381;SDS011;7275;50.328;8.720;2023-02-21T08:17:11;8.00;;;6.17;;
14381;SDS011;7275;50.328;8.720;2023-02-21T08:19:39;9.73;;;6.90;;
14381;SDS011;7275;50.328;8.720;2023-02-21T08:22:07;9.00;;;6.97;;
14381;SDS011;7275;50.328;8.720;2023-02-21T08:24:36;8.87;;;7.10;;
14381;SDS011;7275;50.328;8.720;2023-02-21T08:27:04;9.07;;;6.77;;
14381;SDS011;7275;50.328;8.720;2023-02-21T08:29:31;9.20;;;6.87;;
14381;SDS011;7275;50.328;8.720;2023-02-21T08:31:59;8.53;;;6.50;;
14381;SDS011;7275;50.328;8.720;2023-02-21T08:34:27;7.87;;;6.40;;
14381;SDS011;7275;50.328;8.720;2023-02-21T08:36:55;7.97;;;6.33;;
14381;SDS011;7275;50.328;8.720;2023-02-21T08:39:23;9.43;;;6.40;;
14381;SDS011;7275;50.328;8.720;2023-02-21T08:41:52;7.77;;;6.43;;
14381;SDS011;7275;50.328;8.720;2023-02-21T08:44:19;7.17;;;6.37;;
14381;SDS011;7275;50.328;8.720;2023-02-21T08:46:47;10.00;;;7.00;;
14381;SDS011;7275;50.328;8.720;2023-02-21T08:49:15;8.60;;;7.07;;
14381;SDS011;7275;50.328;8.720;2023-02-21T08:51:43;8.20;;;6.67;;
14381;SDS011;7275;50.328;8.720;2023-02-21T08:54:10;8.70;;;6.90;;
14381;SDS011;7275;50.328;8.720;2023-02-21T08:56:38;9.07;;;6.93;;
14381;SDS011;7275;50.328;8.720;2023-02-21T08:59:07;9.40;;;7.67;;
14381;SDS011;7275;50.328;8.720;2023-02-21T09:01:35;9.57;;;7.33;;
14381;SDS011;7275;50.328;8.720;2023-02-21T09:04:03;8.50;;;7.03;;
14381;SDS011;7275;50.328;8.720;2023-02-21T09:06:31;8.27;;;6.77;;
14381;SDS011;7275;50.328;8.720;2023-02-21T09:08:59;9.33;;;7.13;;
14381;SDS011;7275;50.328;8.720;2023-02-21T09:11:26;10.13;;;6.87;;
14381;SDS011;7275;50.328;8.720;2023-02-21T09:13:54;9.23;;;7.00;;
14381;SDS011;7275;50.328;8.720;2023-02-21T09:16:23;9.13;;;7.57;;
14381;SDS011;7275;50.328;8.720;2023-02-21T09:18:52;9.70;;;7.53;;
14381;SDS011;7275;50.328;8.720;2023-02-21T09:21:21;9.70;;;7.83;;
14381;SDS011;7275;50.328;8.720;2023-02-21T09:23:50;10.03;;;7.47;;
14381;SDS011;7275;50.328;8.720;2023-02-21T09:26:19;9.60;;;7.43;;
14381;SDS011;7275;50.328;8.720;2023-02-21T09:28:49;9.37;;;7.40;;
14381;SDS011;7275;50.328;8.720;2023-02-21T09:31:17;10.43;;;7.87;;
14381;SDS011;7275;50.328;8.720;2023-02-21T09:33:47;10.67;;;7.73;;
14381;SDS011;7275;50.328;8.720;2023-02-21T09:36:14;9.17;;;8.03;;
14381;SDS011;7275;50.328;8.720;2023-02-21T09:38:45;10.17;;;8.20;;
14381;SDS011;7275;50.328;8.720;2023-02-21T09:41:13;10.13;;;7.90;;
14381;SDS011;7275;50.328;8.720;2023-02-21T09:43:42;11.07;;;8.17;;
14381;SDS011;7275;50.328;8.720;2023-02-21T09:46:12;9.40;;;7.77;;
14381;SDS011;7275;50.328;8.720;2023-02-21T09:48:44;10.53;;;7.93;;
14381;SDS011;7275;50.328;8.720;2023-02-21T09:51:13;12.17;;;8.17;;
14381;SDS011;7275;50.328;8.720;2023-02-21T09:53:43;9.83;;;8.10;;
14381;SDS011;7275;50.328;8.720;2023-02-21T09:56:17;10.77;;;7.87;;
14381;SDS011;7275;50.328;8.720;2023-02-21T09:58:50;9.77;;;8.07;;
14381;SDS011;7275;50.328;8.720;2023-02-21T10:01:20;10.33;;;8.43;;
14381;SDS011;7275;50.328;8.720;2023-02-21T10:03:52;10.63;;;8.20;;
14381;SDS011;7275;50.328;8.720;2023-02-21T10:06:34;9.93;;;7.73;;
14381;SDS011;7275;50.328;8.720;2023-02-21T10:09:15;10.17;;;7.87;;
14381;SDS011;7275;50.328;8.720;2023-02-21T10:11:53;9.60;;;7.90;;
14381;SDS011;7275;50.328;8.720;2023-02-21T10:14:28;9.43;;;7.87;;
14381;SDS011;7275;50.328;8.720;2023-02-21T10:17:09;9.30;;;8.30;;
14381;SDS011;7275;50.328;8.720;2023-02-21T10:19:43;11.70;;;7.77;;
14381;SDS011;7275;50.328;8.720;2023-02-21T10:22:17;9.33;;;8.07;;
14381;SDS011;7275;50.328;8.720;2023-02-21T10:24:47;11.53;;;7.67;;
14381;SDS011;7275;50.328;8.720;2023-02-21T10:27:16;9.47;;;7.23;;
14381;SDS011;7275;50.328;8.720;2023-02-21T10:29:46;10.10;;;7.67;;
14381;SDS011;7275;50.328;8.720;2023-02-21T10:32:20;8.50;;;7.60;;
14381;SDS011;7275;50.328;8.720;2023-02-21T10:34:49;11.77;;;7.97;;
14381;SDS011;7275;50.328;8.720;2023-02-21T10:37:24;10.43;;;8.40;;
14381;SDS011;7275;50.328;8.720;2023-02-21T10:40:05;9.67;;;7.40;;
14381;SDS011;7275;50.328;8.720;2023-02-21T10:42:46;10.17;;;7.73;;
14381;SDS011;7275;50.328;8.720;2023-02-21T10:45:16;10.80;;;7.77;;
14381;SDS011;7275;50.328;8.720;2023-02-21T10:47:48;11.37;;;7.97;;
14381;SDS011;7275;50.328;8.720;2023-02-21T10:50:36;9.20;;;7.90;;
14381;SDS011;7275;50.328;8.720;2023-02-21T10:53:07;10.57;;;8.53;;
14381;SDS011;7275;50.328;8.720;2023-02-21T10:55:36;10.40;;;8.27;;
14381;SDS011;7275;50.328;8.720;2023-02-21T10:58:05;9.67;;;7.73;;
14381;SDS011;7275;50.328;8.720;2023-02-21T11:00:35;10.10;;;8.33;;
14381;SDS011;7275;50.328;8.720;2023-02-21T11:03:21;10.47;;;8.23;;
14381;SDS011;7275;50.328;8.720;2023-02-21T11:05:54;9.30;;;8.10;;
14381;SDS011;7275;50.328;8.720;2023-02-21T11:08:34;11.37;;;8.77;;
14381;SDS011;7275;50.328;8.720;2023-02-21T11:11:03;8.77;;;7.87;;
14381;SDS011;7275;50.328;8.720;2023-02-21T11:13:31;11.67;;;8.27;;
14381;SDS011;7275;50.328;8.720;2023-02-21T11:16:09;9.27;;;8.10;;
14381;SDS011;7275;50.328;8.720;2023-02-21T11:18:38;9.53;;;8.03;;
14381;SDS011;7275;50.328;8.720;2023-02-21T11:21:10;10.17;;;7.90;;
14381;SDS011;7275;50.328;8.720;2023-02-21T11:23:44;10.50;;;8.97;;
14381;SDS011;7275;50.328;8.720;2023-02-21T11:26:19;10.27;;;8.73;;
14381;SDS011;7275;50.328;8.720;2023-02-21T11:28:47;11.50;;;8.60;;
14381;SDS011;7275;50.328;8.720;2023-02-21T11:31:15;9.50;;;7.90;;
14381;SDS011;7275;50.328;8.720;2023-02-21T11:33:49;9.90;;;7.97;;
14381;SDS011;7275;50.328;8.720;2023-02-21T11:36:25;11.17;;;8.90;;
14381;SDS011;7275;50.328;8.720;2023-02-21T11:39:00;12.13;;;8.63;;
14381;SDS011;7275;50.328;8.720;2023-02-21T11:41:34;10.17;;;8.50;;
14381;SDS011;7275;50.328;8.720;2023-02-21T11:44:20;9.03;;;8.07;;
14381;SDS011;7275;50.328;8.720;2023-02-21T11:46:51;8.20;;;7.30;;
14381;SDS011;7275;50.328;8.720;2023-02-21T11:49:35;10.83;;;8.20;;
14381;SDS011;7275;50.328;8.720;2023-02-21T11:52:08;8.65;;;7.22;;
14381;SDS011;7275;50.328;8.720;2023-02-21T11:54:42;8.37;;;7.53;;
14381;SDS011;7275;50.328;8.720;2023-02-21T11:57:15;9.30;;;7.93;;
14381;SDS011;7275;50.328;8.720;2023-02-21T11:59:51;7.83;;;7.00;;
14381;SDS011;7275;50.328;8.720;2023-02-21T12:02:34;9.40;;;7.40;;
14381;SDS011;7275;50.328;8.720;2023-02-21T12:05:21;7.97;;;7.10;;
14381;SDS011;7275;50.328;8.720;2023-02-21T12:08:03;8.20;;;7.07;;
14381;SDS011;7275;50.328;8.720;2023-02-21T12:10:42;7.47;;;6.70;;
14381;SDS011;7275;50.328;8.720;2023-02-21T12:13:18;8.93;;;6.97;;
14381;SDS011;7275;50.328;8.720;2023-02-21T12:15:55;7.07;;;6.15;;
14381;SDS011;7275;50.328;8.720;2023-02-21T12:18:32;7.45;;;6.35;;
14381;SDS011;7275;50.328;8.720;2023-02-21T12:21:25;7.63;;;6.57;;
14381;SDS011;7275;50.328;8.720;2023-02-21T12:24:10;7.13;;;5.97;;
14381;SDS011;7275;50.328;8.720;2023-02-21T12:26:53;6.50;;;5.90;;
14381;SDS011;7275;50.328;8.720;2023-02-21T12:29:30;6.95;;;6.25;;
14381;SDS011;7275;50.328;8.720;2023-02-21T12:32:22;6.57;;;5.90;;
14381;SDS011;7275;50.328;8.720;2023-02-21T12:35:06;6.97;;;6.25;;
14381;SDS011;7275;50.328;8.720;2023-02-21T12:38:00;6.40;;;5.75;;
14381;SDS011;7275;50.328;8.720;2023-02-21T12:40:35;6.63;;;5.82;;
14381;SDS011;7275;50.328;8.720;2023-02-21T12:43:19;6.95;;;6.00;;
14381;SDS011;7275;50.328;8.720;2023-02-21T12:45:55;5.97;;;5.38;;
14381;SDS011;7275;50.328;8.720;2023-02-21T12:48:32;5.78;;;5.28;;
14381;SDS011;7275;50.328;8.720;2023-02-21T12:51:05;5.95;;;5.35;;
14381;SDS011;7275;50.328;8.720;2023-02-21T12:53:36;6.32;;;5.40;;
14381;SDS011;7275;50.328;8.720;2023-02-21T12:56:09;5.60;;;5.10;;
14381;SDS011;7275;50.328;8.720;2023-02-21T12:58:43;6.55;;;5.53;;
14381;SDS011;7275;50.328;8.720;2023-02-21T13:01:17;5.85;;;4.97;;
14381;SDS011;7275;50.328;8.720;2023-02-21T13:03:51;6.50;;;4.88;;
14381;SDS011;7275;50.328;8.720;2023-02-21T13:06:27;5.20;;;4.70;;
14381;SDS011;7275;50.328;8.720;2023-02-21T13:09:01;6.25;;;4.97;;
14381;SDS011;7275;50.328;8.720;2023-02-21T13:11:36;5.38;;;4.88;;
14381;SDS011;7275;50.328;8.720;2023-02-21T13:14:10;4.78;;;4.38;;
14381;SDS011;7275;50.328;8.720;2023-02-21T13:16:42;5.47;;;4.78;;
14381;SDS011;7275;50.328;8.720;2023-02-21T13:19:11;5.45;;;4.95;;
14381;SDS011;7275;50.328;8.720;2023-02-21T13:21:47;6.15;;;4.47;;
14381;SDS011;7275;50.328;8.720;2023-02-21T13:24:22;4.30;;;3.90;;
14381;SDS011;7275;50.328;8.720;2023-02-21T13:27:12;4.60;;;4.20;;
14381;SDS011;7275;50.328;8.720;2023-02-21T13:30:04;4.45;;;3.83;;
14381;SDS011;7275;50.328;8.720;2023-02-21T13:32:39;4.68;;;4.18;;
14381;SDS011;7275;50.328;8.720;2023-02-21T13:35:18;4.68;;;4.28;;
14381;SDS011;7275;50.328;8.720;2023-02-21T13:37:51;7.43;;;4.07;;
14381;SDS011;7275;50.328;8.720;2023-02-21T13:40:20;4.72;;;4.20;;
14381;SDS011;7275;50.328;8.720;2023-02-21T13:43:00;4.53;;;4.13;;
14381;SDS011;7275;50.328;8.720;2023-02-21T13:45:37;4.30;;;3.58;;
14381;SDS011;7275;50.328;8.720;2023-02-21T13:50:54;4.45;;;4.05;;
14381;SDS011;7275;50.328;8.720;2023-02-21T13:53:24;4.03;;;3.63;;
14381;SDS011;7275;50.328;8.720;2023-02-21T13:56:13;3.80;;;3.50;;
14381;SDS011;7275;50.328;8.720;2023-02-21T13:58:43;3.78;;;3.35;;
14381;SDS011;7275;50.328;8.720;2023-02-21T14:01:38;3.88;;;3.45;;
14381;SDS011;7275;50.328;8.720;2023-02-21T14:10:26;4.53;;;3.80;;
14381;SDS011;7275;50.328;8.720;2023-02-21T14:13:05;4.40;;;3.40;;
14381;SDS011;7275;50.328;8.720;2023-02-21T14:15:44;4.22;;;3.75;;
14381;SDS011;7275;50.328;8.720;2023-02-21T14:18:16;4.15;;;3.50;;
14381;SDS011;7275;50.328;8.720;2023-02-21T14:20:48;4.68;;;4.13;;
14381;SDS011;7275;50.328;8.720;2023-02-21T14:23:18;5.28;;;3.95;;
14381;SDS011;7275;50.328;8.720;2023-02-21T14:25:55;5.68;;;4.18;;
14381;SDS011;7275;50.328;8.720;2023-02-21T14:34:16;5.03;;;4.28;;
14381;SDS011;7275;50.328;8.720;2023-02-21T14:36:49;6.10;;;3.97;;
14381;SDS011;7275;50.328;8.720;2023-02-21T14:39:18;4.13;;;3.72;;
14381;SDS011;7275;50.328;8.720;2023-02-21T14:41:50;4.25;;;3.85;;
14381;SDS011;7275;50.328;8.720;2023-02-21T14:44:33;4.15;;;3.72;;
14381;SDS011;7275;50.328;8.720;2023-02-21T14:47:16;4.53;;;4.03;;
14381;SDS011;7275;50.328;8.720;2023-02-21T14:50:03;5.18;;;3.60;;
14381;SDS011;7275;50.328;8.720;2023-02-21T14:52:54;4.75;;;3.70;;
14381;SDS011;7275;50.328;8.720;2023-02-21T14:55:43;8.27;;;3.70;;
14381;SDS011;7275;50.328;8.720;2023-02-21T14:58:37;3.85;;;3.45;;
14381;SDS011;7275;50.328;8.720;2023-02-21T15:01:15;3.88;;;3.45;;
14381;SDS011;7275;50.328;8.720;2023-02-21T15:04:03;3.92;;;3.58;;
14381;SDS011;7275;50.328;8.720;2023-02-21T15:06:37;4.18;;;3.30;;
14381;SDS011;7275;50.328;8.720;2023-02-21T15:09:10;4.65;;;3.92;;
14381;SDS011;7275;50.328;8.720;2023-02-21T15:11:39;4.80;;;3.30;;
14381;SDS011;7275;50.328;8.720;2023-02-21T15:14:12;3.13;;;2.78;;
14381;SDS011;7275;50.328;8.720;2023-02-21T15:16:50;3.75;;;3.28;;
14381;SDS011;7275;50.328;8.720;2023-02-21T15:19:22;3.72;;;3.30;;
14381;SDS011;7275;50.328;8.720;2023-02-21T15:22:14;3.60;;;3.22;;
14381;SDS011;7275;50.328;8.720;2023-02-21T15:27:52;3.28;;;2.97;;
14381;SDS011;7275;50.328;8.720;2023-02-21T15:30:22;3.25;;;2.90;;
14381;SDS011;7275;50.328;8.720;2023-02-21T15:32:53;3.20;;;2.90;;
14381;SDS011;7275;50.328;8.720;2023-02-21T15:35:25;3.88;;;3.10;;
14381;SDS011;7275;50.328;8.720;2023-02-21T15:37:57;3.35;;;2.97;;
14381;SDS011;7275;50.328;8.720;2023-02-21T15:40:27;3.60;;;2.95;;
14381;SDS011;7275;50.328;8.720;2023-02-21T15:42:55;3.58;;;3.17;;
14381;SDS011;7275;50.328;8.720;2023-02-21T15:45:24;3.78;;;3.38;;
14381;SDS011;7275;50.328;8.720;2023-02-21T15:47:55;4.18;;;3.28;;
14381;SDS011;7275;50.328;8.720;2023-02-21T15:50:29;4.05;;;3.10;;
14381;SDS011;7275;50.328;8.720;2023-02-21T15:53:12;3.50;;;3.20;;
14381;SDS011;7275;50.328;8.720;2023-02-21T15:55:42;4.00;;;3.15;;
14381;SDS011;7275;50.328;8.720;2023-02-21T15:58:15;4.40;;;3.45;;
14381;SDS011;7275;50.328;8.720;2023-02-21T16:00:46;4.22;;;3.65;;
14381;SDS011;7275;50.328;8.720;2023-02-21T16:03:28;4.20;;;3.38;;